Time;durP1;ratioP1;P1;durP2;ratioP2;P2;SDS_P1;SDS_P2;PMS_P1;PMS_P2;Temp;Humidity;BMP_temperature;BMP_pressure;BME280_temperature;BME280_humidity;BME280_pressure;Samples;Min_cycle;Max_cycle;Signal;HPM_P1;HPM_P2
2022/01/12 00:01:24;;;;;;;13.10;5.70;;;;;;;-4.35;67.21;102514.59;105457;1271;72792;-73
2022/01/12 00:03:53;;;;;;;13.70;7.30;;;;;;;-4.36;66.47;102518.15;105477;1270;59654;-75
2022/01/12 00:06:24;;;;;;;9.90;4.80;;;;;;;-4.39;66.27;102518.94;105453;1270;62472;-74
2022/01/12 00:08:53;;;;;;;10.10;4.90;;;;;;;-4.30;66.41;102515.53;105474;1270;75232;-75
2022/01/12 00:11:22;;;;;;;8.00;5.20;;;;;;;-4.18;65.55;102526.63;105377;1270;72477;-75
2022/01/12 00:13:52;;;;;;;7.80;3.90;;;;;;;-4.16;62.92;102531.42;105482;1271;70479;-75
2022/01/12 00:16:21;;;;;;;10.70;4.90;;;;;;;-4.16;62.40;102524.45;105501;1270;75081;-75
2022/01/12 00:18:50;;;;;;;11.30;5.80;;;;;;;-4.22;61.76;102530.13;105486;1270;59722;-79
2022/01/12 00:21:19;;;;;;;7.90;4.40;;;;;;;-4.28;61.76;102526.13;105453;1272;59043;-77
2022/01/12 00:23:48;;;;;;;11.70;5.50;;;;;;;-4.29;61.85;102522.19;105559;1271;71824;-82
2022/01/12 00:34:42;;;;;;;9.90;5.60;;;;;;;-4.29;62.07;102526.61;105403;1272;62025;-78
2022/01/12 00:37:11;;;;;;;12.50;4.70;;;;;;;-4.31;61.94;102522.67;105440;1273;60577;-79
2022/01/12 00:39:40;;;;;;;9.80;5.30;;;;;;;-4.33;61.36;102525.86;105441;1273;74532;-77
2022/01/12 00:42:13;;;;;;;8.70;4.60;;;;;;;-4.42;60.90;102520.59;105425;1273;72786;-79
2022/01/12 00:44:46;;;;;;;8.70;4.90;;;;;;;-4.43;60.39;102524.66;105437;1271;68913;-75
2022/01/12 00:47:15;;;;;;;11.30;5.20;;;;;;;-4.41;60.00;102525.38;105468;1272;74449;-76
2022/01/12 00:49:44;;;;;;;10.40;5.10;;;;;;;-4.42;59.22;102523.66;105349;1276;60274;-80
2022/01/12 00:52:14;;;;;;;7.90;4.30;;;;;;;-4.50;59.31;102520.77;105400;1270;59597;-77
2022/01/12 00:54:47;;;;;;;7.30;3.70;;;;;;;-4.54;58.16;102519.02;105470;1272;75081;-75
2022/01/12 00:57:17;;;;;;;11.30;4.90;;;;;;;-4.61;58.75;102522.29;105254;1271;70677;-74
2022/01/12 00:59:46;;;;;;;8.30;4.70;;;;;;;-4.71;58.16;102521.23;105351;1273;69766;-76
2022/01/12 01:02:15;;;;;;;7.10;4.10;;;;;;;-4.71;59.60;102521.40;105424;1271;72521;-75
2022/01/12 01:04:44;;;;;;;9.80;4.90;;;;;;;-4.71;59.74;102522.44;105206;1270;408685;-74
2022/01/12 01:07:13;;;;;;;9.90;4.60;;;;;;;-4.67;60.21;102520.64;105395;1272;59033;-73
2022/01/12 01:09:48;;;;;;;9.70;4.30;;;;;;;-4.62;59.86;102517.99;105398;1273;72192;-73
2022/01/12 01:12:17;;;;;;;12.20;5.50;;;;;;;-4.64;59.98;102514.05;105312;1272;69228;-73
2022/01/12 01:15:02;;;;;;;8.60;4.40;;;;;;;-4.64;60.15;102512.88;105361;1270;68524;-72
2022/01/12 01:25:54;;;;;;;12.40;5.60;;;;;;;-4.75;61.13;102516.05;105139;1274;73911;-80
2022/01/12 01:28:23;;;;;;;10.00;5.00;;;;;;;-4.84;61.18;102521.65;105376;1270;70489;-77
2022/01/12 01:30:54;;;;;;;8.70;3.80;;;;;;;-4.95;61.33;102523.31;105288;1272;70672;-78
2022/01/12 01:33:27;;;;;;;8.20;4.50;;;;;;;-5.06;61.50;102518.66;105537;1270;70332;-78
2022/01/12 01:35:57;;;;;;;9.30;5.00;;;;;;;-5.12;62.32;102520.74;105401;1273;60355;-79
2022/01/12 01:38:27;;;;;;;11.00;4.90;;;;;;;-5.18;63.05;102526.56;105442;1273;60195;-78
2022/01/12 01:40:57;;;;;;;8.30;2.60;;;;;;;-5.19;63.70;102528.58;105483;1270;72975;-77
2022/01/12 01:54:29;;;;;;;14.50;7.30;;;;;;;-5.59;64.84;102530.41;105185;1273;59705;-78
2022/01/12 01:56:59;;;;;;;14.00;6.80;;;;;;;-5.62;65.98;102530.17;105281;1272;74882;-75
2022/01/12 01:59:28;;;;;;;9.10;5.00;;;;;;;-5.55;66.74;102530.32;105222;1273;71922;-75
2022/01/12 02:01:57;;;;;;;13.60;6.60;;;;;;;-5.54;66.31;102536.30;105245;1273;68837;-75
2022/01/12 02:04:26;;;;;;;12.10;5.60;;;;;;;-5.61;65.85;102526.29;105213;1273;72806;-73
2022/01/12 02:06:58;;;;;;;16.70;7.60;;;;;;;-5.66;65.81;102541.43;105216;1271;59866;-74
2022/01/12 02:09:36;;;;;;;13.70;5.80;;;;;;;-5.71;66.02;102539.30;106624;1270;60503;-74
2022/01/12 02:12:28;;;;;;;16.90;6.20;;;;;;;-5.73;66.15;102539.95;105300;1270;72476;-76
2022/01/12 02:15:01;;;;;;;16.40;7.50;;;;;;;-5.78;66.89;102537.23;105261;1270;71542;-76
2022/01/12 02:17:39;;;;;;;13.50;7.00;;;;;;;-5.79;66.76;102539.77;105271;1272;68553;-75
2022/01/12 02:20:14;;;;;;;13.10;6.20;;;;;;;-5.80;67.08;102542.47;105236;1273;71644;-72
2022/01/12 02:36:59;;;;;;;11.30;5.70;;;;;;;-6.10;67.90;102564.98;105512;1273;72545;-77
2022/01/12 02:39:52;;;;;;;15.70;7.60;;;;;;;-6.14;67.98;102563.18;105817;1271;62977;-77
2022/01/12 02:42:21;;;;;;;12.90;6.10;;;;;;;-6.18;68.38;102572.25;105827;1270;62015;-76
2022/01/12 02:56:02;;;;;;;15.40;6.90;;;;;;;-6.39;68.26;102577.62;105456;1273;64522;-77
2022/01/12 02:58:31;;;;;;;12.80;7.00;;;;;;;-6.46;68.00;102573.70;105440;1273;61066;-75
2022/01/12 03:03:52;;;;;;;9.70;4.80;;;;;;;-6.60;68.21;102575.87;106171;1272;72419;-76
2022/01/12 03:06:27;;;;;;;15.70;5.90;;;;;;;-6.65;68.31;102579.96;105436;1273;70699;-76
2022/01/12 03:08:57;;;;;;;13.00;6.80;;;;;;;-6.69;68.87;102582.91;105459;1273;71739;-76
2022/01/12 03:11:28;;;;;;;12.30;6.30;;;;;;;-6.65;69.41;102579.79;105379;1273;59705;-76
2022/01/12 03:14:00;;;;;;;14.10;7.30;;;;;;;-6.64;69.21;102576.60;105408;1273;59051;-76
2022/01/12 03:16:30;;;;;;;17.20;8.50;;;;;;;-6.70;68.89;102582.87;105446;1273;74637;-76
2022/01/12 03:19:04;;;;;;;16.90;8.30;;;;;;;-6.77;69.00;102585.73;105422;1273;71358;-74
2022/01/12 03:21:34;;;;;;;14.50;6.10;;;;;;;-6.86;69.64;102584.95;105296;1276;70779;-71
2022/01/12 03:24:07;;;;;;;13.50;5.70;;;;;;;-6.89;70.42;102590.11;105309;1273;74416;-73
2022/01/12 03:26:36;;;;;;;15.90;8.80;;;;;;;-6.91;69.52;102596.33;105357;1274;63341;-75
2022/01/12 03:29:05;;;;;;;13.10;6.00;;;;;;;-6.95;69.02;102599.25;105338;1273;60819;-74
2022/01/12 03:31:35;;;;;;;9.60;4.90;;;;;;;-7.02;68.23;102602.09;105505;1272;71825;-74
2022/01/12 03:34:20;;;;;;;12.80;6.70;;;;;;;-7.13;67.55;102607.85;105398;1273;71774;-76
2022/01/12 03:37:15;;;;;;;10.20;4.70;;;;;;;-7.30;67.18;102603.78;105362;1273;71256;-74
2022/01/12 03:39:43;;;;;;;7.50;3.90;;;;;;;-7.34;66.80;102609.58;105197;1276;72657;-75
2022/01/12 03:42:13;;;;;;;9.70;4.70;;;;;;;-7.41;67.15;102604.79;105319;1273;62155;-74
2022/01/12 03:44:42;;;;;;;11.10;6.60;;;;;;;-7.43;67.98;102602.35;105312;1273;62957;-73
2022/01/12 03:47:11;;;;;;;8.20;4.10;;;;;;;-7.54;67.77;102606.73;105325;1273;72924;-74
2022/01/12 03:49:40;;;;;;;11.00;4.70;;;;;;;-7.50;68.72;102608.74;105294;1273;70892;-75
2022/01/12 03:52:10;;;;;;;10.50;6.10;;;;;;;-7.51;68.32;102608.39;105265;1273;70753;-75
2022/01/12 03:54:39;;;;;;;11.20;5.30;;;;;;;-7.61;68.51;102606.35;105295;1273;74429;-76
2022/01/12 03:57:08;;;;;;;11.90;5.70;;;;;;;-7.63;68.86;102609.33;105208;1273;60684;-75
2022/01/12 03:59:38;;;;;;;7.20;4.00;;;;;;;-7.78;69.00;102608.33;105299;1273;59551;-76
2022/01/12 04:02:08;;;;;;;11.40;5.70;;;;;;;-7.74;69.44;102610.65;105289;1273;73834;-76
2022/01/12 04:04:53;;;;;;;9.90;5.40;;;;;;;-7.77;69.84;102609.72;105293;1273;70096;-75
2022/01/12 04:10:11;;;;;;;8.90;5.30;;;;;;;-7.79;69.80;102619.45;105279;1273;74907;-78
2022/01/12 04:12:41;;;;;;;12.10;4.70;;;;;;;-7.85;69.74;102627.38;105282;1273;60171;-76
2022/01/12 04:15:10;;;;;;;10.50;5.20;;;;;;;-7.91;69.79;102629.04;105339;1273;59859;-79
2022/01/12 04:17:40;;;;;;;10.50;5.40;;;;;;;-7.95;69.60;102629.41;105307;1273;74069;-76
2022/01/12 04:20:09;;;;;;;8.20;4.10;;;;;;;-7.97;70.38;102627.48;105208;1273;73057;-77
2022/01/12 04:26:11;;;;;;;8.50;4.80;;;;;;;-8.00;69.88;102640.05;104926;1280;74640;-80
2022/01/12 04:28:44;;;;;;;9.90;4.40;;;;;;;-8.03;69.30;102641.66;105052;1279;62130;-78
2022/01/12 04:31:14;;;;;;;9.90;5.00;;;;;;;-8.05;69.57;102643.25;105268;1273;61612;-80
2022/01/12 04:33:45;;;;;;;9.30;5.30;;;;;;;-8.20;69.58;102650.52;105329;1273;74120;-78
2022/01/12 04:36:15;;;;;;;6.40;3.70;;;;;;;-8.27;69.43;102651.98;105295;1273;72569;-78
2022/01/12 04:38:45;;;;;;;6.30;3.60;;;;;;;-8.24;69.86;102656.79;105319;1273;69265;-77
2022/01/12 04:41:15;;;;;;;7.70;3.10;;;;;;;-8.22;70.36;102659.05;105325;1273;74167;-76
2022/01/12 04:43:45;;;;;;;8.50;3.60;;;;;;;-8.19;70.62;102661.02;105404;1271;61513;-78
2022/01/12 04:48:54;;;;;;;8.70;4.50;;;;;;;-8.29;69.51;102668.11;105378;1271;74925;-76
2022/01/12 04:51:25;;;;;;;8.70;4.70;;;;;;;-8.34;69.49;102673.19;105515;1270;72836;-77
2022/01/12 04:53:54;;;;;;;10.20;3.70;;;;;;;-8.43;69.77;102672.19;105390;1273;71256;-76
2022/01/12 04:56:25;;;;;;;7.60;4.20;;;;;;;-8.52;69.86;102671.36;105271;1270;75635;-80
2022/01/12 04:58:55;;;;;;;13.30;5.40;;;;;;;-8.54;70.32;102670.61;105320;1270;62353;-79
2022/01/12 05:01:27;;;;;;;8.30;4.60;;;;;;;-8.50;70.55;102677.16;105133;1271;61305;-78
2022/01/12 05:07:10;;;;;;;6.50;3.60;;;;;;;-8.59;70.32;102686.47;105240;1270;70624;-75
2022/01/12 05:09:51;;;;;;;7.70;3.40;;;;;;;-8.62;70.41;102689.73;105308;1270;69908;-80
2022/01/12 05:15:15;;;;;;;9.40;5.00;;;;;;;-8.61;70.69;102682.20;105352;1270;60614;-76
2022/01/12 05:17:45;;;;;;;5.80;3.70;;;;;;;-8.60;70.51;102687.77;105243;1273;63147;-79
2022/01/12 05:20:14;;;;;;;4.70;2.90;;;;;;;-8.64;70.35;102690.84;105409;1273;73369;-78
2022/01/12 05:22:43;;;;;;;8.50;3.90;;;;;;;-8.64;70.03;102692.71;105483;1273;70576;-79
2022/01/12 05:25:13;;;;;;;6.00;2.70;;;;;;;-8.69;70.12;102697.40;105368;1273;69212;-82
2022/01/12 05:27:42;;;;;;;7.50;3.20;;;;;;;-8.69;70.00;102703.66;105301;1273;72799;-76
2022/01/12 05:30:13;;;;;;;10.30;4.40;;;;;;;-8.71;70.09;102707.13;105213;1273;59984;-73
2022/01/12 05:32:45;;;;;;;6.10;3.40;;;;;;;-8.74;70.05;102710.73;105273;1273;60614;-73
2022/01/12 05:35:17;;;;;;;5.00;3.40;;;;;;;-8.77;70.00;102715.84;105299;1274;73205;-73
2022/01/12 05:37:47;;;;;;;8.60;4.10;;;;;;;-8.76;70.05;102724.49;105266;1273;71220;-75
2022/01/12 05:40:16;;;;;;;10.70;4.40;;;;;;;-8.83;70.10;102727.62;105282;1273;68839;-75
2022/01/12 05:42:46;;;;;;;6.60;3.90;;;;;;;-8.82;70.17;102729.50;105249;1273;74438;-77
2022/01/12 05:45:18;;;;;;;9.40;4.10;;;;;;;-8.82;70.21;102735.25;105288;1273;62128;-77
2022/01/12 05:50:20;;;;;;;6.20;3.80;;;;;;;-8.87;69.84;102743.19;105241;1273;75913;-76
2022/01/12 05:52:50;;;;;;;9.70;4.30;;;;;;;-8.90;69.79;102744.56;105318;1273;73343;-79
2022/01/12 05:55:20;;;;;;;9.10;4.30;;;;;;;-8.90;69.98;102749.95;105383;1273;69410;-76
2022/01/12 05:57:50;;;;;;;7.40;3.80;;;;;;;-8.88;69.90;102750.70;105411;1270;74623;-76
2022/01/12 06:00:22;;;;;;;9.80;4.90;;;;;;;-8.89;69.56;102752.71;105494;1271;60452;-75
2022/01/12 06:02:54;;;;;;;9.10;4.00;;;;;;;-8.89;69.73;102754.89;105511;1270;61425;-73
2022/01/12 06:05:24;;;;;;;8.00;4.50;;;;;;;-8.91;69.78;102759.39;105498;1270;76099;-75
2022/01/12 06:07:54;;;;;;;10.40;4.20;;;;;;;-8.88;69.55;102766.77;105397;1270;71454;-72
2022/01/12 06:10:24;;;;;;;7.80;4.20;;;;;;;-8.89;69.61;102769.77;105475;1270;70577;-75
2022/01/12 06:12:55;;;;;;;9.80;3.70;;;;;;;-8.90;69.70;102773.95;105356;1273;74716;-73
2022/01/12 06:15:25;;;;;;;9.10;3.80;;;;;;;-8.86;69.79;102775.95;105490;1270;62553;-75
2022/01/12 06:17:54;;;;;;;9.60;4.00;;;;;;;-8.92;70.06;102780.11;105530;1270;60384;-73
2022/01/12 06:20:24;;;;;;;13.70;5.00;;;;;;;-8.90;69.84;102782.89;105470;1270;75500;-78
2022/01/12 06:23:14;;;;;;;11.10;5.60;;;;;;;-8.86;70.02;102786.91;105332;1273;70658;-78
2022/01/12 06:25:47;;;;;;;14.70;5.30;;;;;;;-8.88;70.21;102784.85;105338;1270;71144;-75
2022/01/12 06:28:23;;;;;;;7.50;4.80;;;;;;;-8.78;70.24;102783.05;105462;1270;74051;-76
2022/01/12 06:31:11;;;;;;;10.20;4.20;;;;;;;-8.74;70.35;102782.52;105280;1273;61552;-75
2022/01/12 06:33:46;;;;;;;8.20;4.60;;;;;;;-8.75;70.48;102783.13;105502;1270;60624;-74
2022/01/12 06:36:19;;;;;;;8.00;3.70;;;;;;;-8.75;70.57;102788.40;105324;1271;72813;-80
2022/01/12 06:38:49;;;;;;;6.20;3.90;;;;;;;-8.76;70.80;102791.88;105247;1273;72416;-75
2022/01/12 06:41:20;;;;;;;6.80;3.70;;;;;;;-8.74;70.46;102788.27;105317;1270;72555;-75
2022/01/12 06:43:53;;;;;;;7.20;3.50;;;;;;;-8.70;70.41;102792.64;105330;1270;71569;-76
2022/01/12 06:46:26;;;;;;;4.40;2.40;;;;;;;-8.66;70.33;102796.69;105289;1273;63184;-74
2022/01/12 06:48:56;;;;;;;7.30;3.80;;;;;;;-8.68;70.33;102796.77;105372;1273;61070;-75
2022/01/12 06:51:25;;;;;;;7.80;3.80;;;;;;;-8.62;70.28;102797.01;105470;1273;73005;-75
2022/01/12 06:53:56;;;;;;;5.60;3.80;;;;;;;-8.59;70.12;102799.02;105573;1270;72890;-75
2022/01/12 06:56:25;;;;;;;6.80;3.50;;;;;;;-8.51;70.02;102794.06;105407;1270;71776;-76
2022/01/12 06:58:56;;;;;;;4.30;2.90;;;;;;;-8.45;69.76;102792.81;105357;1273;72372;-77
2022/01/12 07:01:27;;;;;;;5.00;2.80;;;;;;;-8.41;69.60;102791.77;105391;1270;59908;-74
2022/01/12 07:03:56;;;;;;;7.00;4.30;;;;;;;-8.41;69.75;102792.77;105470;1270;59181;-75
2022/01/12 07:06:26;;;;;;;11.30;5.00;;;;;;;-8.38;69.50;102795.79;105298;1271;74550;-76
2022/01/12 07:08:56;;;;;;;12.80;4.60;;;;;;;-8.37;69.66;102796.82;105447;1270;72853;-74
2022/01/12 07:11:39;;;;;;;7.60;4.30;;;;;;;-8.27;69.58;102793.80;105505;1270;69797;-75
2022/01/12 07:14:16;;;;;;;7.10;3.60;;;;;;;-8.19;70.30;102798.16;105308;1273;72437;-76
2022/01/12 07:16:46;;;;;;;12.70;4.80;;;;;;;-8.07;71.04;102800.62;105349;1271;61521;-76
2022/01/12 07:19:15;;;;;;;11.70;5.30;;;;;;;-8.04;70.18;102802.59;105429;1270;59731;-75
2022/01/12 07:21:44;;;;;;;10.30;6.10;;;;;;;-8.00;70.33;102794.98;105252;1273;73562;-72
2022/01/12 07:24:13;;;;;;;8.60;4.40;;;;;;;-7.96;69.92;102794.60;105296;1270;70577;-72
2022/01/12 07:26:42;;;;;;;7.10;4.60;;;;;;;-7.92;70.01;102795.59;105382;1270;68054;-78
2022/01/12 07:29:11;;;;;;;12.10;5.50;;;;;;;-7.91;69.34;102794.95;105298;1273;72223;-75
2022/01/12 07:31:40;;;;;;;8.00;4.50;;;;;;;-7.92;68.82;102800.86;105740;1273;59920;-76
2022/01/12 07:34:10;;;;;;;9.50;4.40;;;;;;;-7.84;68.41;102800.46;105569;1270;60677;-74
2022/01/12 07:36:39;;;;;;;8.60;4.00;;;;;;;-7.89;67.93;102806.02;107462;1272;73674;-75
2022/01/12 07:39:08;;;;;;;10.10;4.90;;;;;;;-7.87;68.00;102807.12;107513;1273;70818;-75
2022/01/12 07:41:37;;;;;;;8.40;4.70;;;;;;;-7.81;68.36;102806.68;105304;1275;69816;-77
2022/01/12 07:44:07;;;;;;;10.70;5.20;;;;;;;-7.74;67.56;102804.36;107480;1270;72886;-73
2022/01/12 07:46:36;;;;;;;9.90;5.00;;;;;;;-7.71;66.90;102802.80;107176;1270;62318;-73
2022/01/12 07:49:05;;;;;;;9.60;5.10;;;;;;;-7.79;66.08;102813.02;105288;1273;60261;-76
2022/01/12 07:51:34;;;;;;;8.90;4.30;;;;;;;-7.77;66.42;102806.98;105365;1272;74460;-74
2022/01/12 07:54:03;;;;;;;12.00;5.20;;;;;;;-7.66;66.05;102809.06;105336;1270;70350;-78
2022/01/12 07:56:33;;;;;;;10.60;6.60;;;;;;;-7.54;66.40;102807.65;105285;1270;69331;-74
2022/01/12 07:59:02;;;;;;;10.10;5.60;;;;;;;-7.41;66.45;102814.67;105377;1270;72159;-74
2022/01/12 08:01:31;;;;;;;13.50;5.20;;;;;;;-7.45;65.88;102818.77;105160;1271;60692;-73
2022/01/12 08:04:01;;;;;;;12.80;6.00;;;;;;;-7.59;65.53;102817.27;105240;1270;61514;-76
2022/01/12 08:06:30;;;;;;;11.20;4.90;;;;;;;-7.49;64.83;102809.52;105274;1270;75545;-74
2022/01/12 08:08:59;;;;;;;11.00;5.50;;;;;;;-7.54;65.17;102811.70;105138;1271;72596;-75
2022/01/12 08:11:29;;;;;;;11.60;6.80;;;;;;;-7.41;65.01;102820.95;105183;1273;69558;-78
2022/01/12 08:13:58;;;;;;;12.20;6.40;;;;;;;-7.50;64.96;102824.55;105174;1273;74421;-78
2022/01/12 08:16:27;;;;;;;9.10;5.10;;;;;;;-7.51;65.50;102826.88;105210;1273;61445;-74
2022/01/12 08:18:56;;;;;;;13.50;6.60;;;;;;;-7.47;65.64;102828.85;105246;1270;60389;-75
2022/01/12 08:21:27;;;;;;;12.40;7.40;;;;;;;-7.38;65.56;102827.51;105279;1270;73856;-77
2022/01/12 08:23:56;;;;;;;9.30;4.60;;;;;;;-7.34;64.78;102826.11;105202;1273;71946;-74
2022/01/12 08:26:33;;;;;;;9.20;4.30;;;;;;;-7.24;64.66;102822.90;105209;1273;68924;-77
2022/01/12 08:29:03;;;;;;;14.10;6.70;;;;;;;-7.19;64.34;102828.81;105205;1273;73119;-77
2022/01/12 08:31:31;;;;;;;16.00;5.90;;;;;;;-7.17;64.22;102828.23;105253;1270;62227;-76
2022/01/12 08:34:01;;;;;;;13.40;6.70;;;;;;;-7.13;65.06;102834.27;105188;1273;61054;-73
2022/01/12 08:36:30;;;;;;;10.70;6.60;;;;;;;-7.05;65.18;102831.16;105241;1270;74899;-75
2022/01/12 08:39:02;;;;;;;10.60;5.90;;;;;;;-6.97;64.58;102832.45;105178;1270;73258;-77
2022/01/12 08:41:31;;;;;;;12.10;4.90;;;;;;;-6.89;64.36;102830.02;105153;1270;71550;-75
2022/01/12 08:44:09;;;;;;;10.20;5.60;;;;;;;-6.82;64.33;102821.27;105202;1270;75695;-75
2022/01/12 08:46:40;;;;;;;13.60;6.30;;;;;;;-6.69;63.52;102821.69;105216;1273;61851;-77
2022/01/12 08:49:10;;;;;;;12.10;5.70;;;;;;;-6.63;63.18;102822.41;105245;1270;60615;-77
2022/01/12 08:51:39;;;;;;;12.00;6.90;;;;;;;-6.74;63.24;102831.19;105143;1270;73912;-78
2022/01/12 08:54:08;;;;;;;10.50;5.50;;;;;;;-6.62;63.15;102832.60;105280;1270;73225;-77
2022/01/12 08:56:38;;;;;;;9.90;6.10;;;;;;;-6.67;62.81;102830.07;105307;1271;69013;-75
2022/01/12 08:59:07;;;;;;;10.20;5.00;;;;;;;-6.71;62.65;102819.09;105375;1270;73747;-74
2022/01/12 09:01:36;;;;;;;15.20;6.80;;;;;;;-6.65;62.46;102823.15;105282;1270;61306;-79
2022/01/12 09:04:06;;;;;;;10.40;5.20;;;;;;;-6.64;62.53;102819.65;105275;1270;61458;-78
2022/01/12 09:06:36;;;;;;;11.60;5.10;;;;;;;-6.64;62.44;102814.91;105442;1270;75075;-76
2022/01/12 09:09:05;;;;;;;14.10;6.80;;;;;;;-6.73;62.94;102815.45;105369;1273;73295;-78
2022/01/12 09:11:34;;;;;;;10.30;5.70;;;;;;;-6.56;63.11;102810.92;105286;1271;72433;-77
2022/01/12 09:14:03;;;;;;;14.40;5.00;;;;;;;-6.48;62.99;102811.34;105326;1270;73624;-77
2022/01/12 09:16:32;;;;;;;9.30;5.10;;;;;;;-6.31;62.89;102802.53;105408;1270;61939;-80
2022/01/12 09:19:01;;;;;;;15.50;7.60;;;;;;;-6.18;62.38;102809.21;105284;1270;59275;-73
2022/01/12 09:21:30;;;;;;;12.30;5.00;;;;;;;-6.11;61.54;102810.59;105257;1270;75058;-77
2022/01/12 09:24:00;;;;;;;16.60;5.00;;;;;;;-6.11;61.43;102801.95;105245;1270;72476;-77
2022/01/12 09:26:29;;;;;;;13.00;5.90;;;;;;;-6.17;62.14;102801.60;105330;1270;70737;-79
2022/01/12 09:28:59;;;;;;;8.70;4.70;;;;;;;-6.02;62.21;102798.13;105282;1273;72620;-76
2022/01/12 09:31:28;;;;;;;9.70;5.00;;;;;;;-5.91;62.06;102785.89;105307;1270;63726;-78
2022/01/12 09:33:58;;;;;;;11.60;5.10;;;;;;;-5.83;62.38;102781.34;105300;1273;61172;-77
2022/01/12 09:36:27;;;;;;;12.10;4.30;;;;;;;-5.72;61.65;102785.40;105378;1270;73410;-77
2022/01/12 09:38:56;;;;;;;9.40;4.30;;;;;;;-5.68;60.91;102787.89;105380;1270;69830;-76
2022/01/12 09:41:27;;;;;;;8.00;4.40;;;;;;;-5.64;60.65;102785.77;105325;1273;68927;-78
2022/01/12 09:43:57;;;;;;;9.70;4.80;;;;;;;-5.66;60.44;102784.36;105269;1273;73128;-76
2022/01/12 09:46:27;;;;;;;10.00;5.40;;;;;;;-5.76;60.82;102786.12;105378;1271;62391;-80
2022/01/12 09:48:59;;;;;;;8.30;4.70;;;;;;;-5.48;61.04;102767.20;105363;1270;59467;-77
2022/01/12 09:51:29;;;;;;;8.60;4.20;;;;;;;-5.36;59.53;102769.55;105370;1270;72590;-77
2022/01/12 09:53:58;;;;;;;8.10;4.60;;;;;;;-5.38;59.01;102758.63;105313;1273;71586;-76
2022/01/12 09:56:30;;;;;;;10.80;4.60;;;;;;;-5.25;58.83;102755.73;105384;1270;70916;-75
2022/01/12 09:59:04;;;;;;;9.10;4.70;;;;;;;-5.22;58.74;102756.15;105289;1271;73395;-76
2022/01/12 10:01:44;;;;;;;9.30;4.40;;;;;;;-5.16;58.61;102747.80;105312;1270;60620;-75
2022/01/12 10:04:17;;;;;;;8.70;4.10;;;;;;;-5.01;58.91;102746.30;105248;1273;60600;-78
2022/01/12 10:07:03;;;;;;;8.60;4.20;;;;;;;-5.00;58.07;102743.28;105335;1270;71942;-75
2022/01/12 10:09:37;;;;;;;7.80;3.40;;;;;;;-5.00;57.27;102746.67;105092;1273;71413;-75
2022/01/12 10:12:19;;;;;;;7.10;3.50;;;;;;;-5.08;57.18;102752.77;105112;1273;71267;-76
2022/01/12 10:14:59;;;;;;;7.50;4.10;;;;;;;-5.00;57.34;102736.98;105152;1272;73001;-74
2022/01/12 10:17:38;;;;;;;8.60;4.10;;;;;;;-4.98;57.15;102731.60;105204;1270;61484;-76
2022/01/12 10:20:21;;;;;;;6.40;3.30;;;;;;;-4.87;57.02;102736.77;105236;1270;61405;-76
2022/01/12 10:23:05;;;;;;;;;;;;;;;-4.75;57.04;102723.79;105187;1270;72627;-75
2022/01/12 10:25:36;;;;;;;5.30;3.10;;;;;;;-4.60;56.64;102723.98;105315;1270;70819;-78
2022/01/12 10:28:18;;;;;;;5.00;2.90;;;;;;;-4.51;55.79;102723.48;105313;1273;70648;-77
2022/01/12 10:31:06;;;;;;;6.90;3.40;;;;;;;-4.48;55.76;102708.40;105314;1273;72081;-77
2022/01/12 10:33:35;;;;;;;6.50;3.60;;;;;;;-4.45;54.90;102716.46;105317;1273;61494;-77
2022/01/12 10:36:10;;;;;;;9.50;3.50;;;;;;;-4.37;54.76;102719.21;105383;1270;62833;-74
2022/01/12 10:38:39;;;;;;;7.30;2.70;;;;;;;-4.21;54.69;102709.67;105457;1270;73213;-72
2022/01/12 10:41:08;;;;;;;5.20;2.40;;;;;;;-4.19;54.25;102697.11;105369;1273;70557;-76
2022/01/12 10:43:44;;;;;;;8.40;3.10;;;;;;;-4.12;54.56;102711.04;105378;1270;68756;-74
2022/01/12 10:46:19;;;;;;;4.70;2.10;;;;;;;-3.92;54.59;102705.48;105311;1270;73125;-76
2022/01/12 10:48:54;;;;;;;5.50;3.00;;;;;;;-3.68;52.75;102713.42;105289;1271;60744;-76
2022/01/12 10:51:27;;;;;;;4.50;2.00;;;;;;;-3.60;53.28;102710.67;105122;1273;61501;-75
2022/01/12 10:54:03;;;;;;;5.40;2.50;;;;;;;-3.42;51.58;102707.75;105247;1273;74090;-76
2022/01/12 10:56:32;;;;;;;8.90;3.20;;;;;;;-3.49;51.19;102698.27;105228;1270;70889;-78
2022/01/12 10:59:02;;;;;;;6.90;3.20;;;;;;;-3.29;51.96;102697.58;105321;1270;69847;-77
2022/01/12 11:01:31;;;;;;;6.90;2.50;;;;;;;-3.24;51.33;102691.51;105274;1270;71385;-80
2022/01/12 11:04:01;;;;;;;4.70;2.20;;;;;;;-3.06;50.38;102690.11;105289;1273;59612;-77
2022/01/12 11:06:30;;;;;;;5.20;2.70;;;;;;;-3.02;50.37;102688.45;105175;1273;60243;-80
2022/01/12 11:09:00;;;;;;;7.70;3.50;;;;;;;-2.96;49.63;102692.99;105195;1273;74806;-74
2022/01/12 11:11:29;;;;;;;4.90;2.60;;;;;;;-3.30;50.24;102683.08;105254;1270;70524;-76
2022/01/12 11:13:59;;;;;;;6.50;2.80;;;;;;;-2.95;49.76;102686.19;105167;1273;70895;-76
2022/01/12 11:16:29;;;;;;;7.50;3.00;;;;;;;-2.75;49.20;102680.33;105180;1273;72044;-74
2022/01/12 11:19:04;;;;;;;5.70;2.50;;;;;;;-2.77;49.50;102675.52;105208;1270;62518;-76
2022/01/12 11:21:56;;;;;;;9.30;3.50;;;;;;;-2.78;49.33;102671.41;105084;1270;61759;-74
2022/01/12 11:24:28;;;;;;;5.30;2.70;;;;;;;-2.71;49.64;102673.05;105109;1273;76312;-72
2022/01/12 11:26:58;;;;;;;7.20;2.60;;;;;;;-2.44;48.62;102663.17;105128;1273;71398;-77
2022/01/12 11:29:36;;;;;;;8.10;3.10;;;;;;;-2.56;48.34;102672.73;105208;1272;70282;-75
2022/01/12 11:32:12;;;;;;;13.00;6.10;;;;;;;-2.35;48.05;102664.65;105207;1270;73163;-76
2022/01/12 11:34:41;;;;;;;8.60;3.80;;;;;;;-2.25;47.75;102660.17;105312;1272;60465;-76
2022/01/12 11:37:17;;;;;;;7.50;3.30;;;;;;;-2.06;48.50;102650.98;105442;1270;59843;-75
2022/01/12 11:39:47;;;;;;;9.20;3.60;;;;;;;-1.84;47.84;102655.31;105375;1270;74640;-76
2022/01/12 11:42:17;;;;;;;4.10;2.10;;;;;;;-1.66;46.73;102659.59;105135;1270;71092;-78
2022/01/12 11:44:46;;;;;;;5.10;2.80;;;;;;;-1.58;45.50;102660.86;105245;1272;68848;-75
2022/01/12 11:47:15;;;;;;;4.50;2.40;;;;;;;-1.77;46.18;102650.77;105188;1270;72439;-73
2022/01/12 11:49:47;;;;;;;5.30;2.80;;;;;;;-1.88;45.31;102646.21;105250;1273;59662;-76
2022/01/12 11:52:19;;;;;;;5.80;2.60;;;;;;;-1.71;44.92;102645.20;105210;1273;59424;-77
2022/01/12 11:54:52;;;;;;;4.40;1.90;;;;;;;-1.69;45.27;102655.98;105281;1270;75197;-76
2022/01/12 11:57:34;;;;;;;7.00;2.70;;;;;;;-1.71;44.70;102658.86;105239;1270;72595;-76
2022/01/12 12:00:21;;;;;;;5.10;2.00;;;;;;;-1.79;44.26;102634.17;105227;1270;69484;-80
2022/01/12 12:02:52;;;;;;;;;;;;;;;-1.86;44.06;102640.61;105314;1273;72058;-76
2022/01/12 12:05:29;;;;;;;4.90;1.70;;;;;;;-2.00;44.49;102653.61;105193;1270;61533;-75
2022/01/12 12:08:04;;;;;;;4.90;2.50;;;;;;;-1.82;43.97;102651.58;105192;1273;61271;-76
2022/01/12 12:10:40;;;;;;;3.00;1.80;;;;;;;-1.79;44.18;102649.73;105183;1270;74845;-75
2022/01/12 12:13:11;;;;;;;5.60;2.40;;;;;;;-1.60;44.25;102640.17;105218;1270;72825;-75
2022/01/12 12:15:45;;;;;;;5.20;2.40;;;;;;;-1.47;43.90;102641.48;105200;1273;70246;-75
2022/01/12 12:18:20;;;;;;;4.00;2.30;;;;;;;-1.64;43.39;102642.53;105154;1273;73072;-75
2022/01/12 12:20:49;;;;;;;2.80;1.70;;;;;;;-1.78;42.68;102639.83;105230;1270;60524;-76
2022/01/12 12:23:22;;;;;;;3.50;1.70;;;;;;;-1.89;42.99;102646.21;105103;1273;61462;-77
2022/01/12 12:25:52;;;;;;;3.90;1.50;;;;;;;-1.58;42.94;102627.53;105183;1273;73803;-76
2022/01/12 12:28:21;;;;;;;7.10;3.20;;;;;;;-1.28;43.20;102628.80;105202;1272;71553;-76
2022/01/12 12:30:50;;;;;;;9.40;3.70;;;;;;;-1.23;44.50;102638.40;105236;1273;68417;-77
2022/01/12 12:33:19;;;;;;;4.60;2.50;;;;;;;-0.96;44.19;102630.52;105091;1273;72063;-80
2022/01/12 12:35:49;;;;;;;7.10;3.40;;;;;;;-0.77;44.02;102621.42;105227;1273;59910;-80
2022/01/12 12:38:19;;;;;;;5.50;2.90;;;;;;;-0.85;44.01;102619.84;105222;1273;59279;-75
2022/01/12 12:40:57;;;;;;;6.40;2.90;;;;;;;-0.76;44.13;102620.23;105218;1273;72960;-78
2022/01/12 12:43:32;;;;;;;3.70;1.90;;;;;;;-0.39;42.30;102622.43;105241;1273;70526;-77
2022/01/12 12:46:11;;;;;;;5.50;2.70;;;;;;;-0.57;41.49;102618.25;105322;1270;67264;-76
2022/01/12 12:48:40;;;;;;;4.40;1.70;;;;;;;-0.66;41.81;102618.04;105289;1270;74472;-78